Time;durP1;ratioP1;P1;durP2;ratioP2;P2;SDS_P1;SDS_P2;PMS_P1;PMS_P2;Temp;Humidity;BMP_temperature;BMP_pressure;BME280_temperature;BME280_humidity;BME280_pressure;Samples;Min_cycle;Max_cycle;Signal;HPM_P1;HPM_P2
2022/05/23 17:39:36;;;;;;;;;7.00;7.00;;;;;-143.39;100.00;63593.47;5469492;23;47130;-84
2022/05/23 20:47:59;;;;;;;;;5.00;4.00;;;;;-143.39;100.00;63593.47;4784546;29;45488;-80
2022/05/23 20:50:36;;;;;;;;;9.75;3.50;;;;;-143.39;100.00;63593.47;4808983;29;45880;-79
2022/05/23 20:53:15;;;;;;;;;;;;;;;;;;;;;
2022/05/23 20:55:56;;;;;;;;;5.50;4.25;;;;;-143.39;100.00;63593.47;4812434;29;67617;-79
2022/05/23 21:02:27;;;;;;;;;;;;;;;;;;;;;
2022/05/23 21:04:53;;;;;;;;;5.00;5.00;;;;;-143.39;100.00;63593.47;4776465;29;73868;-79
2022/05/23 21:07:24;;;;;;;;;4.00;4.00;;;;;-143.39;100.00;63593.47;4786107;29;46335;-79
2022/05/23 21:09:50;;;;;;;;;4.75;4.00;;;;;-143.39;100.00;63593.47;4799033;29;45594;-79
2022/05/23 21:12:24;;;;;;;;;5.00;3.00;;;;;-143.39;100.00;63593.47;4801021;29;45524;-79
2022/05/23 21:14:57;;;;;;;;;2.25;2.25;;;;;-143.39;100.00;63593.47;4800779;29;45713;-79
2022/05/23 21:17:41;;;;;;;;;3.00;3.00;;;;;-143.39;100.00;63593.47;4803711;29;46302;-79
2022/05/23 21:20:20;;;;;;;;;;;;;;;;;;;;;
2022/05/23 21:22:51;;;;;;;;;10.00;4.75;;;;;-143.39;100.00;63593.47;4805147;29;75797;-79
2022/05/23 21:25:19;;;;;;;;;4.25;4.00;;;;;-143.39;100.00;63593.47;4806715;29;45569;-79
2022/05/23 21:27:55;;;;;;;;;3.25;3.00;;;;;-143.39;100.00;63593.47;4802541;29;45594;-80
2022/05/23 21:30:27;;;;;;;;;2.50;1.50;;;;;-143.39;100.00;63593.47;4810816;29;45463;-80
2022/05/23 21:32:54;;;;;;;;;2.00;2.00;;;;;-143.39;100.00;63593.47;4802812;29;46265;-79
2022/05/23 21:35:21;;;;;;;;;2.00;2.00;;;;;-143.39;100.00;63593.47;4800533;29;45507;-80
2022/05/23 21:37:47;;;;;;;;;3.00;2.00;;;;;-143.39;100.00;63593.47;4800684;29;45502;-80
2022/05/23 21:48:28;;;;;;;;;1.00;1.00;;;;;-143.39;100.00;63593.47;4800423;29;45827;-79
2022/05/23 21:51:01;;;;;;;;;2.00;2.00;;;;;-143.39;100.00;63593.47;4795486;29;45514;-80
2022/05/23 21:53:26;;;;;;;;;1.00;1.00;;;;;-143.39;100.00;63593.47;4799491;29;46718;-79
2022/05/23 21:55:52;;;;;;;;;2.00;1.00;;;;;-143.39;100.00;63593.47;4802599;29;46978;-79
2022/05/23 21:58:18;;;;;;;;;1.75;1.75;;;;;-143.39;100.00;63593.47;4802936;29;45619;-79
2022/05/23 22:03:43;;;;;;;;;1.50;1.50;;;;;-143.39;100.00;63593.47;4795607;29;46532;-79
2022/05/23 22:06:16;;;;;;;;;4.75;2.00;;;;;-143.39;100.00;63593.47;4803201;29;45571;-79
2022/05/23 22:08:42;;;;;;;;;3.00;2.00;;;;;-143.39;100.00;63593.47;4796506;29;45437;-80
2022/05/23 22:11:08;;;;;;;;;1.00;1.00;;;;;-143.39;100.00;63593.47;4807709;29;45702;-79
2022/05/23 22:13:33;;;;;;;;;2.00;2.00;;;;;-143.39;100.00;63593.47;4812198;29;46362;-79
2022/05/23 22:16:02;;;;;;;;;2.00;2.00;;;;;-143.39;100.00;63593.47;4810486;29;45374;-80
2022/05/23 22:18:37;;;;;;;;;1.75;1.00;;;;;-143.39;100.00;63593.47;4824588;29;45363;-80
2022/05/23 22:21:02;;;;;;;;;1.00;1.00;;;;;-143.39;100.00;63593.47;4807622;29;45607;-80
2022/05/23 22:23:28;;;;;;;;;2.00;2.00;;;;;-143.39;100.00;63593.47;4809002;29;46130;-79
2022/05/23 22:25:58;;;;;;;;;2.00;2.00;;;;;-143.39;100.00;63593.47;4809257;29;45566;-80
2022/05/23 22:28:24;;;;;;;;;2.00;2.00;;;;;-143.39;100.00;63593.47;4810485;29;45511;-80
2022/05/23 22:30:51;;;;;;;;;6.75;3.00;;;;;-143.39;100.00;63593.47;4792874;29;45542;-79
2022/05/23 22:33:17;;;;;;;;;2.50;2.00;;;;;-143.39;100.00;63593.47;4815033;29;46353;-80
2022/05/23 22:35:42;;;;;;;;;1.50;1.50;;;;;-143.39;100.00;63593.47;4808612;29;45509;-80
2022/05/23 22:38:08;;;;;;;;;2.00;2.00;;;;;-143.39;100.00;63593.47;4809056;29;45342;-79
2022/05/23 22:40:36;;;;;;;;;8.00;3.00;;;;;-143.39;100.00;63593.47;4819972;29;45476;-79
2022/05/23 22:43:04;;;;;;;;;5.75;5.25;;;;;-143.39;100.00;63593.47;4808492;29;47017;-80
2022/05/23 22:45:34;;;;;;;;;9.75;4.50;;;;;-143.39;100.00;63593.47;4810221;29;45363;-79
2022/05/23 22:48:00;;;;;;;;;5.00;4.00;;;;;-143.39;100.00;63593.47;4809494;29;45417;-79
2022/05/23 22:50:51;;;;;;;;;2.00;2.00;;;;;-143.39;100.00;63593.47;4804529;29;45545;-79
2022/05/23 22:53:16;;;;;;;;;4.50;4.00;;;;;-143.39;100.00;63593.47;4799368;29;46266;-79
2022/05/23 22:55:58;;;;;;;;;;;;;;;;;;;;;
2022/05/23 22:58:36;;;;;;;;;;;;;;;;;;;;;
2022/05/23 23:01:06;;;;;;;;;2.00;2.00;;;;;-143.39;100.00;63593.47;4816537;29;72002;-79
2022/05/23 23:06:28;;;;;;;;;4.00;3.00;;;;;-143.39;100.00;63593.47;4810051;29;45777;-79
2022/05/23 23:08:54;;;;;;;;;2.25;2.25;;;;;-143.39;100.00;63593.47;4801204;29;45684;-79
2022/05/23 23:11:32;;;;;;;;;3.25;2.00;;;;;-143.39;100.00;63593.47;4797278;29;45354;-79
2022/05/23 23:13:59;;;;;;;;;1.75;1.75;;;;;-143.39;100.00;63593.47;4796617;29;46981;-79
2022/05/23 23:16:27;;;;;;;;;1.00;1.00;;;;;-143.39;100.00;63593.47;4809919;29;45494;-79
2022/05/23 23:19:07;;;;;;;;;;;;;;;;;;;;;
2022/05/23 23:21:41;;;;;;;;;6.00;2.50;;;;;-143.39;100.00;63593.47;4809426;29;71910;-79
2022/05/23 23:24:21;;;;;;;;;3.00;3.00;;;;;-143.39;100.00;63593.47;4810186;29;46398;-80
2022/05/23 23:26:51;;;;;;;;;3.00;2.00;;;;;-143.39;100.00;63593.47;4808520;29;45639;-79
2022/05/23 23:29:32;;;;;;;;;;;;;;;;;;;;;
2022/05/23 23:32:07;;;;;;;;;3.50;2.75;;;;;-143.39;100.00;63593.47;4809439;29;72864;-79
2022/05/23 23:40:11;;;;;;;;;2.50;1.25;;;;;-143.39;100.00;63593.47;4810364;29;45336;-79
2022/05/23 23:42:58;;;;;;;;;;;;;;;;;;;;;
2022/05/23 23:45:28;;;;;;;;;2.00;2.00;;;;;-143.39;100.00;63593.47;4809373;29;75339;-79
2022/05/23 23:48:08;;;;;;;;;;;;;;;;;;;;;
2022/05/23 23:50:47;;;;;;;;;2.75;1.75;;;;;-143.39;100.00;63593.47;4809269;29;68944;-79
2022/05/23 23:53:15;;;;;;;;;3.00;3.00;;;;;-143.39;100.00;63593.47;4808491;29;45201;-79
2022/05/23 23:55:40;;;;;;;;;3.00;1.25;;;;;-143.39;100.00;63593.47;4811647;29;47969;-79
2022/05/23 23:58:09;;;;;;;;;3.50;2.00;;;;;-143.39;100.00;63593.47;4809320;29;45437;-79
